sensor_id;sensor_type;location;lat;lon;timestamp;pressure;altitude;pressure_sealevel;temperature;humidity
16016;BME280;8112;53.592;10.184;2022-12-07T00:02:22;100892.22;;;2.83;100.00
16016;BME280;8112;53.592;10.184;2022-12-07T00:07:24;100867.97;;;2.81;100.00
16016;BME280;8112;53.592;10.184;2022-12-07T00:12:27;100870.31;;;2.92;100.00
16016;BME280;8112;53.592;10.184;2022-12-07T00:17:29;100854.59;;;2.96;100.00
16016;BME280;8112;53.592;10.184;2022-12-07T00:22:31;100840.78;;;2.93;100.00
16016;BME280;8112;53.592;10.184;2022-12-07T00:27:34;100842.31;;;3.00;100.00
16016;BME280;8112;53.592;10.184;2022-12-07T00:32:35;100831.84;;;3.03;100.00
16016;BME280;8112;53.592;10.184;2022-12-07T00:37:37;100827.47;;;3.04;100.00
16016;BME280;8112;53.592;10.184;2022-12-07T00:42:40;100817.03;;;3.05;100.00
16016;BME280;8112;53.592;10.184;2022-12-07T00:47:42;100817.75;;;3.10;100.00
16016;BME280;8112;53.592;10.184;2022-12-07T00:52:44;100810.59;;;3.19;100.00
16016;BME280;8112;53.592;10.184;2022-12-07T00:57:47;100807.84;;;3.25;100.00
16016;BME280;8112;53.592;10.184;2022-12-07T01:02:48;100797.56;;;3.19;100.00
16016;BME280;8112;53.592;10.184;2022-12-07T01:07:50;100790.53;;;3.22;100.00
16016;BME280;8112;53.592;10.184;2022-12-07T01:12:53;100798.25;;;3.25;100.00
16016;BME280;8112;53.592;10.184;2022-12-07T01:17:55;100787.59;;;3.35;100.00
16016;BME280;8112;53.592;10.184;2022-12-07T01:22:57;100780.72;;;3.32;100.00
16016;BME280;8112;53.592;10.184;2022-12-07T01:28:00;100779.94;;;3.28;100.00
16016;BME280;8112;53.592;10.184;2022-12-07T01:33:01;100782.31;;;3.36;100.00
16016;BME280;8112;53.592;10.184;2022-12-07T01:38:03;100778.06;;;3.34;100.00
16016;BME280;8112;53.592;10.184;2022-12-07T01:43:14;100779.78;;;3.35;100.00
16016;BME280;8112;53.592;10.184;2022-12-07T01:48:20;100779.22;;;3.23;100.00
16016;BME280;8112;53.592;10.184;2022-12-07T01:53:25;100765.69;;;3.10;100.00
16016;BME280;8112;53.592;10.184;2022-12-07T01:58:30;100772.41;;;3.18;100.00
16016;BME280;8112;53.592;10.184;2022-12-07T02:03:36;100771.81;;;3.08;100.00
16016;BME280;8112;53.592;10.184;2022-12-07T02:08:40;100772.81;;;3.04;100.00
16016;BME280;8112;53.592;10.184;2022-12-07T02:13:45;100764.50;;;2.89;100.00
16016;BME280;8112;53.592;10.184;2022-12-07T02:18:58;100761.91;;;2.89;100.00
16016;BME280;8112;53.592;10.184;2022-12-07T02:24:14;100759.06;;;2.65;100.00
16016;BME280;8112;53.592;10.184;2022-12-07T02:29:24;100755.03;;;2.53;100.00
16016;BME280;8112;53.592;10.184;2022-12-07T02:34:33;100757.50;;;2.58;100.00
16016;BME280;8112;53.592;10.184;2022-12-07T02:39:42;100762.25;;;2.77;100.00
16016;BME280;8112;53.592;10.184;2022-12-07T02:44:46;100767.28;;;2.83;100.00
16016;BME280;8112;53.592;10.184;2022-12-07T02:49:49;100758.50;;;2.87;100.00
16016;BME280;8112;53.592;10.184;2022-12-07T02:54:51;100758.19;;;2.98;100.00
16016;BME280;8112;53.592;10.184;2022-12-07T03:00:01;100759.34;;;2.88;100.00
16016;BME280;8112;53.592;10.184;2022-12-07T03:05:16;100754.34;;;2.80;100.00
16016;BME280;8112;53.592;10.184;2022-12-07T03:10:27;100760.13;;;2.56;100.00
16016;BME280;8112;53.592;10.184;2022-12-07T03:15:33;100758.72;;;2.43;100.00
16016;BME280;8112;53.592;10.184;2022-12-07T03:20:39;100756.56;;;2.24;100.00
16016;BME280;8112;53.592;10.184;2022-12-07T03:25:45;100755.84;;;2.19;100.00
16016;BME280;8112;53.592;10.184;2022-12-07T03:30:52;100754.38;;;2.07;100.00
16016;BME280;8112;53.592;10.184;2022-12-07T03:36:00;100754.50;;;2.01;100.00
16016;BME280;8112;53.592;10.184;2022-12-07T03:41:08;100756.44;;;1.93;100.00
16016;BME280;8112;53.592;10.184;2022-12-07T03:46:19;100764.16;;;1.96;100.00
16016;BME280;8112;53.592;10.184;2022-12-07T03:51:26;100768.78;;;1.84;100.00
16016;BME280;8112;53.592;10.184;2022-12-07T03:56:30;100763.69;;;1.78;100.00
16016;BME280;8112;53.592;10.184;2022-12-07T04:01:33;100767.34;;;1.69;100.00
16016;BME280;8112;53.592;10.184;2022-12-07T04:06:35;100779.41;;;1.72;100.00
16016;BME280;8112;53.592;10.184;2022-12-07T04:11:37;100764.00;;;1.64;100.00
16016;BME280;8112;53.592;10.184;2022-12-07T04:16:40;100771.94;;;1.58;100.00
16016;BME280;8112;53.592;10.184;2022-12-07T04:21:42;100766.97;;;1.47;100.00
16016;BME280;8112;53.592;10.184;2022-12-07T04:26:45;100773.19;;;1.38;100.00
16016;BME280;8112;53.592;10.184;2022-12-07T04:31:48;100779.22;;;1.39;100.00
16016;BME280;8112;53.592;10.184;2022-12-07T04:36:50;100781.91;;;1.34;100.00
16016;BME280;8112;53.592;10.184;2022-12-07T04:41:52;100783.00;;;1.22;100.00
16016;BME280;8112;53.592;10.184;2022-12-07T04:46:56;100782.03;;;1.30;100.00
16016;BME280;8112;53.592;10.184;2022-12-07T04:51:58;100794.22;;;1.24;100.00
16016;BME280;8112;53.592;10.184;2022-12-07T04:57:00;100796.06;;;1.18;100.00
16016;BME280;8112;53.592;10.184;2022-12-07T05:02:03;100779.78;;;1.11;100.00
16016;BME280;8112;53.592;10.184;2022-12-07T05:07:04;100785.84;;;1.10;100.00
16016;BME280;8112;53.592;10.184;2022-12-07T05:12:06;100785.84;;;1.10;100.00
16016;BME280;8112;53.592;10.184;2022-12-07T05:17:09;100784.16;;;1.07;100.00
16016;BME280;8112;53.592;10.184;2022-12-07T05:22:11;100782.59;;;0.97;100.00
16016;BME280;8112;53.592;10.184;2022-12-07T05:27:14;100784.31;;;0.98;100.00
16016;BME280;8112;53.592;10.184;2022-12-07T05:32:17;100786.06;;;0.97;100.00
16016;BME280;8112;53.592;10.184;2022-12-07T05:37:19;100781.78;;;0.95;100.00
16016;BME280;8112;53.592;10.184;2022-12-07T05:42:20;100782.50;;;1.03;100.00
16016;BME280;8112;53.592;10.184;2022-12-07T05:47:24;100791.97;;;1.06;100.00
16016;BME280;8112;53.592;10.184;2022-12-07T05:52:26;100784.22;;;1.04;100.00
16016;BME280;8112;53.592;10.184;2022-12-07T05:57:27;100778.16;;;1.04;100.00
16016;BME280;8112;53.592;10.184;2022-12-07T06:02:30;100785.25;;;0.94;100.00
16016;BME280;8112;53.592;10.184;2022-12-07T06:07:32;100777.47;;;0.94;100.00
16016;BME280;8112;53.592;10.184;2022-12-07T06:12:34;100780.19;;;0.88;100.00
16016;BME280;8112;53.592;10.184;2022-12-07T06:17:37;100779.44;;;0.82;100.00
16016;BME280;8112;53.592;10.184;2022-12-07T06:22:39;100775.97;;;0.82;100.00
16016;BME280;8112;53.592;10.184;2022-12-07T06:27:40;100768.94;;;0.87;100.00
16016;BME280;8112;53.592;10.184;2022-12-07T06:32:43;100768.78;;;0.96;100.00
16016;BME280;8112;53.592;10.184;2022-12-07T06:37:45;100769.69;;;0.94;100.00
16016;BME280;8112;53.592;10.184;2022-12-07T06:42:47;100768.81;;;0.95;100.00
16016;BME280;8112;53.592;10.184;2022-12-07T06:47:50;100766.13;;;0.99;100.00
16016;BME280;8112;53.592;10.184;2022-12-07T06:52:52;100770.22;;;1.11;100.00
16016;BME280;8112;53.592;10.184;2022-12-07T06:57:54;100775.25;;;1.21;100.00
16016;BME280;8112;53.592;10.184;2022-12-07T07:02:57;100765.66;;;1.24;100.00
16016;BME280;8112;53.592;10.184;2022-12-07T07:07:59;100773.50;;;1.21;100.00
16016;BME280;8112;53.592;10.184;2022-12-07T07:13:00;100769.03;;;1.30;100.00
16016;BME280;8112;53.592;10.184;2022-12-07T07:18:04;100770.69;;;1.34;100.00
16016;BME280;8112;53.592;10.184;2022-12-07T07:23:06;100771.53;;;1.34;100.00
16016;BME280;8112;53.592;10.184;2022-12-07T07:28:07;100765.22;;;1.46;100.00
16016;BME280;8112;53.592;10.184;2022-12-07T07:33:11;100767.72;;;1.51;100.00
16016;BME280;8112;53.592;10.184;2022-12-07T07:38:13;100772.00;;;1.53;100.00
16016;BME280;8112;53.592;10.184;2022-12-07T07:43:14;100780.50;;;1.62;100.00
16016;BME280;8112;53.592;10.184;2022-12-07T07:48:18;100784.69;;;1.67;100.00
16016;BME280;8112;53.592;10.184;2022-12-07T07:53:19;100787.06;;;1.78;100.00
16016;BME280;8112;53.592;10.184;2022-12-07T07:58:21;100788.63;;;1.87;100.00
16016;BME280;8112;53.592;10.184;2022-12-07T08:03:24;100782.59;;;1.87;100.00
16016;BME280;8112;53.592;10.184;2022-12-07T08:08:26;100786.81;;;1.91;100.00
16016;BME280;8112;53.592;10.184;2022-12-07T08:13:28;100794.47;;;1.97;100.00
16016;BME280;8112;53.592;10.184;2022-12-07T08:18:34;100785.75;;;1.99;100.00
16016;BME280;8112;53.592;10.184;2022-12-07T08:23:36;100792.56;;;2.05;100.00
16016;BME280;8112;53.592;10.184;2022-12-07T08:28:38;100795.81;;;2.15;100.00
16016;BME280;8112;53.592;10.184;2022-12-07T08:33:42;100786.94;;;2.24;100.00
16016;BME280;8112;53.592;10.184;2022-12-07T08:38:44;100783.38;;;2.28;100.00
16016;BME280;8112;53.592;10.184;2022-12-07T08:43:46;100779.66;;;2.38;100.00
16016;BME280;8112;53.592;10.184;2022-12-07T08:48:53;100781.19;;;2.47;100.00
16016;BME280;8112;53.592;10.184;2022-12-07T08:53:58;100790.50;;;2.56;100.00
16016;BME280;8112;53.592;10.184;2022-12-07T08:59:02;100791.06;;;2.69;100.00
16016;BME280;8112;53.592;10.184;2022-12-07T09:04:05;100787.47;;;2.73;100.00
16016;BME280;8112;53.592;10.184;2022-12-07T09:09:08;100788.00;;;2.86;100.00
16016;BME280;8112;53.592;10.184;2022-12-07T09:14:10;100792.19;;;2.93;100.00
16016;BME280;8112;53.592;10.184;2022-12-07T09:19:14;100786.31;;;3.18;100.00
16016;BME280;8112;53.592;10.184;2022-12-07T09:24:16;100788.00;;;3.21;100.00
16016;BME280;8112;53.592;10.184;2022-12-07T09:29:17;100772.91;;;3.32;100.00
16016;BME280;8112;53.592;10.184;2022-12-07T09:34:20;100780.47;;;3.41;100.00
16016;BME280;8112;53.592;10.184;2022-12-07T09:39:22;100769.06;;;3.46;100.00
16016;BME280;8112;53.592;10.184;2022-12-07T09:44:25;100782.38;;;3.65;100.00
16016;BME280;8112;53.592;10.184;2022-12-07T09:49:30;100785.28;;;3.85;100.00
16016;BME280;8112;53.592;10.184;2022-12-07T09:54:35;100784.19;;;3.93;100.00
16016;BME280;8112;53.592;10.184;2022-12-07T09:59:38;100770.25;;;3.94;100.00
16016;BME280;8112;53.592;10.184;2022-12-07T10:04:43;100771.72;;;4.03;100.00
16016;BME280;8112;53.592;10.184;2022-12-07T10:09:45;100764.91;;;4.25;100.00
16016;BME280;8112;53.592;10.184;2022-12-07T10:14:55;100758.28;;;4.15;100.00
16016;BME280;8112;53.592;10.184;2022-12-07T10:20:18;100759.50;;;4.32;100.00
16016;BME280;8112;53.592;10.184;2022-12-07T10:25:21;100760.31;;;4.34;100.00
16016;BME280;8112;53.592;10.184;2022-12-07T10:30:23;100757.75;;;4.32;100.00
16016;BME280;8112;53.592;10.184;2022-12-07T10:35:31;100747.63;;;4.48;100.00
16016;BME280;8112;53.592;10.184;2022-12-07T10:40:34;100747.75;;;4.45;100.00
16016;BME280;8112;53.592;10.184;2022-12-07T10:45:44;100746.81;;;4.48;100.00
16016;BME280;8112;53.592;10.184;2022-12-07T10:51:07;100747.97;;;4.39;100.00
16016;BME280;8112;53.592;10.184;2022-12-07T11:01:55;100742.78;;;4.37;100.00
16016;BME280;8112;53.592;10.184;2022-12-07T11:07:05;100735.78;;;4.39;100.00
16016;BME280;8112;53.592;10.184;2022-12-07T11:12:13;100732.41;;;4.36;100.00
16016;BME280;8112;53.592;10.184;2022-12-07T11:17:22;100723.34;;;4.46;100.00
16016;BME280;8112;53.592;10.184;2022-12-07T11:22:36;100713.03;;;4.43;100.00
16016;BME280;8112;53.592;10.184;2022-12-07T11:27:48;100714.53;;;4.50;100.00
16016;BME280;8112;53.592;10.184;2022-12-07T11:33:06;100713.13;;;4.40;100.00
16016;BME280;8112;53.592;10.184;2022-12-07T11:38:13;100718.91;;;4.50;100.00
16016;BME280;8112;53.592;10.184;2022-12-07T11:43:21;100706.53;;;4.55;100.00
16016;BME280;8112;53.592;10.184;2022-12-07T11:48:32;100705.47;;;4.61;100.00
16016;BME280;8112;53.592;10.184;2022-12-07T11:53:39;100697.38;;;4.68;100.00
16016;BME280;8112;53.592;10.184;2022-12-07T11:58:49;100696.53;;;4.68;100.00
16016;BME280;8112;53.592;10.184;2022-12-07T12:03:56;100698.78;;;4.79;100.00
16016;BME280;8112;53.592;10.184;2022-12-07T12:09:04;100692.81;;;4.99;100.00
16016;BME280;8112;53.592;10.184;2022-12-07T12:14:33;100683.94;;;4.79;100.00
16016;BME280;8112;53.592;10.184;2022-12-07T12:19:41;100686.66;;;4.76;100.00
16016;BME280;8112;53.592;10.184;2022-12-07T12:24:48;100681.41;;;4.78;100.00
16016;BME280;8112;53.592;10.184;2022-12-07T12:29:54;100680.69;;;4.73;100.00
16016;BME280;8112;53.592;10.184;2022-12-07T12:35:00;100670.09;;;4.77;100.00
16016;BME280;8112;53.592;10.184;2022-12-07T12:51:40;100677.44;;;5.39;100.00
16016;BME280;8112;53.592;10.184;2022-12-07T12:56:46;100673.59;;;5.02;100.00
16016;BME280;8112;53.592;10.184;2022-12-07T13:01:55;100674.09;;;4.88;100.00
16016;BME280;8112;53.592;10.184;2022-12-07T13:06:59;100690.59;;;4.88;100.00
16016;BME280;8112;53.592;10.184;2022-12-07T13:12:03;100669.78;;;4.87;100.00
16016;BME280;8112;53.592;10.184;2022-12-07T13:17:08;100687.72;;;4.70;100.00
16016;BME280;8112;53.592;10.184;2022-12-07T13:27:59;100687.28;;;4.59;100.00
16016;BME280;8112;53.592;10.184;2022-12-07T13:33:03;100679.25;;;4.64;100.00
16016;BME280;8112;53.592;10.184;2022-12-07T13:38:15;100676.38;;;4.71;100.00
16016;BME280;8112;53.592;10.184;2022-12-07T13:43:20;100694.28;;;4.57;100.00
16016;BME280;8112;53.592;10.184;2022-12-07T13:48:28;100694.91;;;4.38;100.00
16016;BME280;8112;53.592;10.184;2022-12-07T13:53:32;100698.00;;;4.24;100.00
16016;BME280;8112;53.592;10.184;2022-12-07T13:58:35;100697.88;;;4.27;100.00
16016;BME280;8112;53.592;10.184;2022-12-07T14:03:37;100695.22;;;4.29;100.00
16016;BME280;8112;53.592;10.184;2022-12-07T14:08:39;100698.59;;;4.06;100.00
16016;BME280;8112;53.592;10.184;2022-12-07T14:13:51;100702.75;;;3.84;100.00
16016;BME280;8112;53.592;10.184;2022-12-07T14:18:57;100690.66;;;3.53;100.00
16016;BME280;8112;53.592;10.184;2022-12-07T14:24:17;100687.56;;;3.40;100.00
16016;BME280;8112;53.592;10.184;2022-12-07T14:29:32;100684.66;;;3.21;100.00
16016;BME280;8112;53.592;10.184;2022-12-07T14:34:34;100692.75;;;3.12;100.00
16016;BME280;8112;53.592;10.184;2022-12-07T14:39:36;100697.41;;;2.99;100.00
16016;BME280;8112;53.592;10.184;2022-12-07T14:44:39;100697.81;;;2.85;100.00
16016;BME280;8112;53.592;10.184;2022-12-07T14:49:41;100696.50;;;2.68;100.00
16016;BME280;8112;53.592;10.184;2022-12-07T14:54:43;100694.03;;;2.64;100.00
16016;BME280;8112;53.592;10.184;2022-12-07T14:59:46;100702.88;;;2.58;100.00
16016;BME280;8112;53.592;10.184;2022-12-07T15:04:48;100691.25;;;2.38;100.00
16016;BME280;8112;53.592;10.184;2022-12-07T15:09:50;100690.84;;;2.19;100.00
16016;BME280;8112;53.592;10.184;2022-12-07T15:14:53;100699.88;;;2.04;100.00
16016;BME280;8112;53.592;10.184;2022-12-07T15:19:54;100690.56;;;1.95;100.00
16016;BME280;8112;53.592;10.184;2022-12-07T15:24:56;100694.09;;;1.91;100.00
16016;BME280;8112;53.592;10.184;2022-12-07T15:29:59;100692.63;;;1.79;100.00
16016;BME280;8112;53.592;10.184;2022-12-07T15:35:01;100691.88;;;1.76;100.00
16016;BME280;8112;53.592;10.184;2022-12-07T15:40:04;100700.59;;;1.71;100.00
16016;BME280;8112;53.592;10.184;2022-12-07T15:45:08;100693.09;;;1.59;100.00
16016;BME280;8112;53.592;10.184;2022-12-07T15:50:13;100693.28;;;1.51;100.00
16016;BME280;8112;53.592;10.184;2022-12-07T15:55:15;100692.72;;;1.35;100.00
16016;BME280;8112;53.592;10.184;2022-12-07T16:00:19;100699.88;;;1.25;100.00
16016;BME280;8112;53.592;10.184;2022-12-07T16:05:21;100691.31;;;1.20;100.00
16016;BME280;8112;53.592;10.184;2022-12-07T16:10:23;100690.50;;;1.18;100.00
16016;BME280;8112;53.592;10.184;2022-12-07T16:15:26;100685.47;;;1.10;100.00
16016;BME280;8112;53.592;10.184;2022-12-07T16:20:27;100680.41;;;1.04;100.00
16016;BME280;8112;53.592;10.184;2022-12-07T16:25:29;100685.53;;;1.07;100.00
16016;BME280;8112;53.592;10.184;2022-12-07T16:30:32;100676.06;;;1.05;100.00
16016;BME280;8112;53.592;10.184;2022-12-07T16:35:38;100674.56;;;0.94;100.00
16016;BME280;8112;53.592;10.184;2022-12-07T16:40:41;100673.75;;;0.91;100.00
16016;BME280;8112;53.592;10.184;2022-12-07T16:45:45;100688.63;;;0.82;100.00
16016;BME280;8112;53.592;10.184;2022-12-07T16:50:47;100686.88;;;0.83;100.00
16016;BME280;8112;53.592;10.184;2022-12-07T16:55:49;100682.59;;;0.80;100.00
16016;BME280;8112;53.592;10.184;2022-12-07T17:00:52;100686.94;;;0.80;100.00
16016;BME280;8112;53.592;10.184;2022-12-07T17:05:54;100683.47;;;0.81;100.00
16016;BME280;8112;53.592;10.184;2022-12-07T17:10:56;100685.09;;;0.85;100.00
16016;BME280;8112;53.592;10.184;2022-12-07T17:16:00;100671.31;;;0.83;100.00
16016;BME280;8112;53.592;10.184;2022-12-07T17:21:03;100674.78;;;0.83;100.00
16016;BME280;8112;53.592;10.184;2022-12-07T17:26:06;100671.91;;;0.96;100.00
16016;BME280;8112;53.592;10.184;2022-12-07T17:31:11;100669.22;;;1.01;100.00
16016;BME280;8112;53.592;10.184;2022-12-07T17:36:22;100663.50;;;0.84;100.00
16016;BME280;8112;53.592;10.184;2022-12-07T17:41:26;100664.41;;;0.82;100.00
16016;BME280;8112;53.592;10.184;2022-12-07T17:46:49;100664.47;;;0.79;100.00
16016;BME280;8112;53.592;10.184;2022-12-07T17:51:54;100654.16;;;0.76;100.00
16016;BME280;8112;53.592;10.184;2022-12-07T17:57:14;100657.13;;;0.55;100.00
16016;BME280;8112;53.592;10.184;2022-12-07T18:02:17;100656.09;;;0.64;100.00
16016;BME280;8112;53.592;10.184;2022-12-07T18:07:19;100646.47;;;0.69;100.00
16016;BME280;8112;53.592;10.184;2022-12-07T18:12:20;100648.84;;;0.82;100.00
16016;BME280;8112;53.592;10.184;2022-12-07T18:17:24;100647.81;;;0.91;100.00
16016;BME280;8112;53.592;10.184;2022-12-07T18:22:25;100646.00;;;0.94;100.00
16016;BME280;8112;53.592;10.184;2022-12-07T18:27:27;100638.03;;;1.04;100.00
16016;BME280;8112;53.592;10.184;2022-12-07T18:32:30;100627.63;;;1.04;100.00
16016;BME280;8112;53.592;10.184;2022-12-07T18:37:32;100620.75;;;1.03;100.00
16016;BME280;8112;53.592;10.184;2022-12-07T18:42:33;100620.78;;;1.01;100.00
16016;BME280;8112;53.592;10.184;2022-12-07T18:47:37;100616.59;;;0.95;100.00
16016;BME280;8112;53.592;10.184;2022-12-07T18:52:38;100614.09;;;0.89;100.00
16016;BME280;8112;53.592;10.184;2022-12-07T18:57:40;100621.94;;;0.88;100.00
16016;BME280;8112;53.592;10.184;2022-12-07T19:02:43;100614.22;;;0.83;100.00
16016;BME280;8112;53.592;10.184;2022-12-07T19:07:45;100605.69;;;0.78;100.00
16016;BME280;8112;53.592;10.184;2022-12-07T19:12:48;100604.75;;;0.82;100.00
16016;BME280;8112;53.592;10.184;2022-12-07T19:17:51;100609.25;;;0.74;100.00
16016;BME280;8112;53.592;10.184;2022-12-07T19:22:53;100609.25;;;0.72;100.00
16016;BME280;8112;53.592;10.184;2022-12-07T19:27:55;100598.97;;;0.67;100.00
16016;BME280;8112;53.592;10.184;2022-12-07T19:32:58;100605.88;;;0.68;100.00
16016;BME280;8112;53.592;10.184;2022-12-07T19:38:00;100596.44;;;0.64;100.00
16016;BME280;8112;53.592;10.184;2022-12-07T19:43:01;100604.59;;;0.46;100.00
16016;BME280;8112;53.592;10.184;2022-12-07T19:48:05;100593.09;;;0.59;100.00
16016;BME280;8112;53.592;10.184;2022-12-07T19:53:06;100587.78;;;0.64;100.00
16016;BME280;8112;53.592;10.184;2022-12-07T19:58:08;100586.97;;;0.62;100.00
16016;BME280;8112;53.592;10.184;2022-12-07T20:03:11;100593.13;;;0.57;100.00
16016;BME280;8112;53.592;10.184;2022-12-07T20:08:13;100587.09;;;0.57;100.00
16016;BME280;8112;53.592;10.184;2022-12-07T20:13:15;100578.44;;;0.58;100.00
16016;BME280;8112;53.592;10.184;2022-12-07T20:18:32;100571.63;;;0.51;100.00
16016;BME280;8112;53.592;10.184;2022-12-07T20:23:34;100567.41;;;0.45;100.00
16016;BME280;8112;53.592;10.184;2022-12-07T20:28:36;100562.28;;;0.44;100.00
16016;BME280;8112;53.592;10.184;2022-12-07T20:33:40;100553.63;;;0.45;100.00
16016;BME280;8112;53.592;10.184;2022-12-07T20:38:45;100558.78;;;0.46;100.00
16016;BME280;8112;53.592;10.184;2022-12-07T20:43:47;100556.81;;;0.57;100.00
16016;BME280;8112;53.592;10.184;2022-12-07T20:48:50;100555.91;;;0.60;100.00
16016;BME280;8112;53.592;10.184;2022-12-07T20:53:52;100544.59;;;0.63;100.00
16016;BME280;8112;53.592;10.184;2022-12-07T20:58:54;100537.63;;;0.66;100.00
16016;BME280;8112;53.592;10.184;2022-12-07T21:03:59;100532.25;;;0.74;100.00
16016;BME280;8112;53.592;10.184;2022-12-07T21:09:01;100527.72;;;0.85;100.00
16016;BME280;8112;53.592;10.184;2022-12-07T21:14:03;100526.69;;;0.91;100.00
16016;BME280;8112;53.592;10.184;2022-12-07T21:19:06;100512.66;;;1.00;100.00
16016;BME280;8112;53.592;10.184;2022-12-07T21:24:09;100516.75;;;1.10;100.00
16016;BME280;8112;53.592;10.184;2022-12-07T21:29:11;100516.59;;;1.18;100.00
16016;BME280;8112;53.592;10.184;2022-12-07T21:34:15;100511.47;;;1.15;100.00
16016;BME280;8112;53.592;10.184;2022-12-07T21:39:17;100508.81;;;1.18;100.00
16016;BME280;8112;53.592;10.184;2022-12-07T21:44:19;100498.34;;;1.21;100.00
16016;BME280;8112;53.592;10.184;2022-12-07T21:49:22;100493.84;;;1.30;100.00
16016;BME280;8112;53.592;10.184;2022-12-07T21:54:24;100486.88;;;1.30;100.00
16016;BME280;8112;53.592;10.184;2022-12-07T21:59:25;100484.22;;;1.33;100.00
16016;BME280;8112;53.592;10.184;2022-12-07T22:04:29;100479.97;;;1.31;100.00
16016;BME280;8112;53.592;10.184;2022-12-07T22:09:30;100473.69;;;1.39;100.00
16016;BME280;8112;53.592;10.184;2022-12-07T22:14:32;100472.53;;;1.51;100.00
16016;BME280;8112;53.592;10.184;2022-12-07T22:19:53;100458.47;;;1.59;100.00
16016;BME280;8112;53.592;10.184;2022-12-07T22:24:55;100451.53;;;1.59;100.00
16016;BME280;8112;53.592;10.184;2022-12-07T22:29:57;100442.88;;;1.59;100.00
16016;BME280;8112;53.592;10.184;2022-12-07T22:35:00;100437.59;;;1.62;100.00
16016;BME280;8112;53.592;10.184;2022-12-07T22:40:02;100427.91;;;1.68;100.00
16016;BME280;8112;53.592;10.184;2022-12-07T22:45:04;100428.88;;;1.66;100.00
16016;BME280;8112;53.592;10.184;2022-12-07T22:50:09;100414.28;;;1.60;100.00
16016;BME280;8112;53.592;10.184;2022-12-07T22:55:11;100408.31;;;1.56;100.00
16016;BME280;8112;53.592;10.184;2022-12-07T23:00:13;100403.09;;;1.58;100.00
16016;BME280;8112;53.592;10.184;2022-12-07T23:05:17;100392.81;;;1.53;100.00
16016;BME280;8112;53.592;10.184;2022-12-07T23:10:18;100385.94;;;1.52;100.00
16016;BME280;8112;53.592;10.184;2022-12-07T23:15:20;100385.25;;;1.44;100.00
16016;BME280;8112;53.592;10.184;2022-12-07T23:20:23;100367.44;;;1.32;100.00
16016;BME280;8112;53.592;10.184;2022-12-07T23:25:25;100369.88;;;1.36;100.00
16016;BME280;8112;53.592;10.184;2022-12-07T23:30:27;100362.38;;;1.25;100.00
16016;BME280;8112;53.592;10.184;2022-12-07T23:35:30;100351.84;;;1.32;100.00
16016;BME280;8112;53.592;10.184;2022-12-07T23:40:32;100349.13;;;1.36;100.00
16016;BME280;8112;53.592;10.184;2022-12-07T23:45:34;100338.97;;;1.28;100.00
16016;BME280;8112;53.592;10.184;2022-12-07T23:50:37;100328.72;;;1.22;100.00
16016;BME280;8112;53.592;10.184;2022-12-07T23:55:43;100327.59;;;1.33;100.00
